Fort Hall, ID (83203)

7:03 PM MDT on April 23, 2017 (GMT -0600)
Tyhee | | Change Station
Active Advisory: Flood Warning

Elev 4459 ft 42.98 °N, 112.46 °W | Updated 19 seconds ago

Partly Cloudy
Partly Cloudy
57.6 °F
Feels Like 57.6 °F
N
5.1
Wind Variable Wind from SW
Gusts 7.4 mph

Today
High -- | Low -- °F
--% Chance of Precip.
Yesterday
High -- | Low -- °F
Precip. -- in
Pressure 29.74 in
Visibility 10.0 miles
Clouds Few 7500 ft
Scattered Clouds 9000 ft
Dew Point 38 °F
Humidity 48%
Rainfall 0.00 in
Snow Depth Not available.
6:34 AM 8:22 PM
Waning Crescent, 8% visible
METAR KPIH 240053Z 23014KT 10SM FEW075 SCT090 15/02 A2978 RMK AO2 SLP069 T01500022
Pressure 29.74 in
Visibility 10.0 miles
Clouds Few 7500 ft
Scattered Clouds 9000 ft
Dew Point 38 °F
Humidity 48%
Rainfall 0.00 in
Snow Depth Not available.
6:34 AM 8:22 PM
Waning Crescent, 8% visible
METAR KPIH 240053Z 23014KT 10SM FEW075 SCT090 15/02 A2978 RMK AO2 SLP069 T01500022

Get Your Daily Forecast Email!

Thanks for signing up!

Be on the lookout for a verification email in your inbox.

You'll start receiving severe weather alerts in your inbox..

×

10-Day Weather Forecast

Almanac

Astronomy

Apr. 23, 2017 Rise Set
Actual Time
Civil Twilight
Nautical Twilight
Astronomical Twilight
Moon
Length of Visible Light
Length of Day
Tomorrow will be .
, % of the Moon is Illuminated

Today's Extremes

State Highs State Lows

Community

WunderPhotos

WunderBlog® & News

Nearby

Air Quality

  Air Quality AQ Index Pollutant
Not available.

Snow Depth

Station Depth Elevation

Earthquake Activity

City Distance Mag. Time & Date
Minimum magnitude displayed is 2.5.

Coastal Water Temperatures

Place Temperature

Stations

Nearby Weather Stations

Station Location Temp. Windchill Dew Point Humidity Wind Precip. Elev Updated Type
                   

Watches & Warnings

Flood Warning
Issued: 11:59 AM MDT Apr. 23, 2017 – National Weather Service

The Flood Warning continues for
the Portneuf River at Pocatello.
* At 11:31 am Sunday the stage was 9.8 feet.
* Flood stage is 8.5 feet.
* Minor flooding is occurring and minor flooding is forecast.
* Forecast... the river will continue rising to near 10.0 feet by
Wednesday evening. Additional rises may be possible thereafter.
* Impact... at 10.0 feet... significant flooding of agricultural land
will occur from the Inkom and Blackrock area. Lowland flooding will
occur along sections of the river in Pocatello from portnuef gap to
the Cheyenne Avenue bridge and downstream of the Concrete channel
beginning at Sacajawea Park.



                       Fld observed forecast 6 am
location stg stg day time Mon Tue Wed

Portneuf River
Portneuf River at po 8.5 9.8 sun 12 PM 9.8 9.9 9.9




Lat... Lon 4298 11257 4276 11237 4263 11228 4265 11213
      4286 11225 4301 11253